Time;durP1;ratioP1;P1;durP2;ratioP2;P2;SDS_P1;SDS_P2;PMS_P1;PMS_P2;Temp;Humidity;BMP_temperature;BMP_pressure;BME280_temperature;BME280_humidity;BME280_pressure;Samples;Min_cycle;Max_cycle;Signal;HPM_P1;HPM_P2
2022/01/21 00:01:38;;;;;;;7.53;0.90;;;2.30;99.90;;;;;;5016128;28;20442;-80
2022/01/21 00:04:05;;;;;;;9.65;1.75;;;2.10;99.90;;;;;;5032071;28;20049;-80
2022/01/21 00:06:31;;;;;;;2.67;0.77;;;2.00;99.90;;;;;;5015773;28;20397;-81
2022/01/21 00:08:57;;;;;;;6.93;0.98;;;2.30;99.90;;;;;;5031302;28;20507;-81
2022/01/21 00:11:25;;;;;;;10.13;1.23;;;2.20;99.90;;;;;;5031859;28;20136;-80
2022/01/21 00:13:52;;;;;;;9.13;1.45;;;2.10;99.90;;;;;;5015470;28;20064;-81
2022/01/21 00:16:20;;;;;;;11.90;1.37;;;2.00;99.90;;;;;;5032330;28;20045;-81
2022/01/21 00:19:05;;;;;;;13.93;1.40;;;2.10;99.90;;;;;;5031762;28;20134;-82
2022/01/21 00:32:32;;;;;;;7.50;1.37;;;2.30;99.90;;;;;;5017715;28;20137;-81
2022/01/21 00:34:58;;;;;;;8.40;0.87;;;2.30;99.90;;;;;;5031235;28;20073;-81
2022/01/21 00:37:24;;;;;;;15.40;2.07;;;2.20;99.90;;;;;;5015391;28;20483;-81
2022/01/21 00:39:54;;;;;;;4.97;0.80;;;2.20;99.90;;;;;;5013597;28;20077;-80
2022/01/21 00:44:47;;;;;;;7.53;1.10;;;2.20;99.90;;;;;;5031211;28;20042;-81
2022/01/21 00:47:13;;;;;;;2.77;0.80;;;2.10;99.90;;;;;;5015084;28;20052;-80
2022/01/21 00:49:38;;;;;;;9.05;0.95;;;2.10;99.90;;;;;;5031288;28;20045;-80
2022/01/21 00:52:04;;;;;;;7.03;1.10;;;2.20;99.90;;;;;;5015446;28;20041;-80
2022/01/21 00:54:30;;;;;;;7.07;0.70;;;2.20;99.90;;;;;;5031319;28;20048;-81
2022/01/21 00:56:56;;;;;;;9.30;0.97;;;2.20;99.90;;;;;;5014332;28;20050;-81
2022/01/21 00:59:22;;;;;;;3.60;0.93;;;2.30;99.90;;;;;;5014964;28;20045;-80
2022/01/21 01:01:47;;;;;;;5.55;1.52;;;2.30;99.90;;;;;;5014936;28;20057;-81
2022/01/21 01:04:13;;;;;;;10.95;0.90;;;2.30;99.90;;;;;;5015024;28;20052;-81
2022/01/21 01:06:39;;;;;;;11.57;1.98;;;2.30;99.90;;;;;;5014770;28;20038;-80
2022/01/21 01:09:04;;;;;;;10.18;1.85;;;2.40;99.90;;;;;;5030939;28;20056;-81
2022/01/21 01:22:14;;;;;;;7.70;0.65;;;2.70;99.90;;;;;;5031008;28;20053;-80
2022/01/21 01:27:37;;;;;;;12.40;1.57;;;2.70;99.90;;;;;;5030998;28;20156;-81
2022/01/21 01:30:07;;;;;;;8.13;1.17;;;2.60;99.90;;;;;;5031298;28;20373;-81
2022/01/21 01:32:33;;;;;;;4.93;0.63;;;2.50;99.90;;;;;;5030694;28;20057;-80
2022/01/21 01:34:59;;;;;;;1.67;0.20;;;2.30;99.90;;;;;;5030999;28;20080;-81
2022/01/21 01:43:04;;;;;;;1.95;0.32;;;1.70;99.90;;;;;;5030839;28;20045;-80
2022/01/21 01:50:50;;;;;;;9.00;1.77;;;1.30;99.90;;;;;;5017078;28;20045;-80
2022/01/21 01:53:18;;;;;;;10.20;1.03;;;1.30;99.90;;;;;;5034923;28;20049;-81
2022/01/21 01:55:44;;;;;;;10.33;2.27;;;1.30;99.90;;;;;;5017683;28;20042;-80
2022/01/21 01:58:12;;;;;;;5.53;0.80;;;1.30;99.90;;;;;;5034401;28;20053;-81
2022/01/21 02:00:39;;;;;;;6.87;0.80;;;1.40;99.90;;;;;;5002756;28;20041;-81
2022/01/21 02:03:06;;;;;;;7.13;1.37;;;1.70;99.90;;;;;;5034052;28;20046;-82
2022/01/21 02:05:32;;;;;;;8.23;1.03;;;2.10;99.90;;;;;;5034361;28;20038;-81
2022/01/21 02:07:57;;;;;;;2.60;0.60;;;2.30;99.90;;;;;;5034814;28;20102;-81
2022/01/21 02:10:23;;;;;;;10.25;1.42;;;2.40;99.90;;;;;;5033871;28;20049;-80
2022/01/21 02:12:49;;;;;;;18.27;1.60;;;2.40;99.90;;;;;;5017776;28;20507;-82
2022/01/21 02:15:15;;;;;;;11.77;1.67;;;2.40;99.90;;;;;;5034681;28;20045;-81
2022/01/21 02:21:29;;;;;;;5.28;1.05;;;2.40;99.90;;;;;;5033924;28;20049;-81
2022/01/21 02:23:12;;;;;;;7.00;0.38;;;2.20;99.90;;;;;;5020344;28;20050;-80
2022/01/21 02:25:37;;;;;;;5.13;1.00;;;2.10;99.90;;;;;;5033974;28;20053;-80
2022/01/21 02:28:03;;;;;;;13.57;1.10;;;1.90;99.90;;;;;;5033969;28;20106;-82
2022/01/21 02:30:29;;;;;;;13.82;1.73;;;1.90;99.90;;;;;;5034228;28;20551;-80
2022/01/21 02:32:56;;;;;;;7.20;1.07;;;1.80;99.90;;;;;;5017462;28;20409;-82
2022/01/21 02:35:24;;;;;;;2.45;0.63;;;1.90;99.90;;;;;;5017916;28;20506;-81
2022/01/21 02:37:50;;;;;;;9.50;0.97;;;2.00;99.90;;;;;;5016721;28;20123;-81
2022/01/21 02:40:17;;;;;;;4.30;0.60;;;2.00;99.90;;;;;;5033703;28;20101;-82
2022/01/21 02:42:43;;;;;;;4.67;0.40;;;1.90;99.90;;;;;;5034009;28;20499;-81
2022/01/21 02:45:10;;;;;;;4.63;0.40;;;1.80;99.90;;;;;;5017481;28;20052;-82
2022/01/21 02:47:36;;;;;;;3.87;0.50;;;1.70;99.90;;;;;;5033493;28;20049;-82
2022/01/21 02:50:04;;;;;;;5.27;0.47;;;1.70;99.90;;;;;;5034254;28;20093;-81
2022/01/21 02:52:39;;;;;;;4.45;0.50;;;1.60;99.90;;;;;;5033437;28;20112;-81
2022/01/21 02:55:06;;;;;;;3.80;0.30;;;1.40;99.90;;;;;;5033323;28;20077;-82
2022/01/21 02:57:32;;;;;;;6.97;0.50;;;1.40;99.90;;;;;;5016690;28;20050;-82
2022/01/21 02:59:58;;;;;;;6.17;0.70;;;1.30;99.90;;;;;;5034008;28;20541;-81
2022/01/21 03:02:24;;;;;;;6.33;0.80;;;1.10;99.90;;;;;;5032187;28;20041;-82
2022/01/21 03:05:01;;;;;;;5.73;1.07;;;1.00;99.90;;;;;;5033479;28;20057;-82
2022/01/21 03:07:27;;;;;;;5.17;0.70;;;0.90;99.90;;;;;;5033614;28;20531;-81
2022/01/21 03:09:53;;;;;;;5.67;0.60;;;0.80;99.90;;;;;;5033148;28;20049;-81
2022/01/21 03:12:21;;;;;;;4.00;0.87;;;0.80;99.90;;;;;;5032402;28;20480;-81
2022/01/21 03:14:47;;;;;;;7.53;0.90;;;0.80;99.90;;;;;;5001519;28;20484;-82
2022/01/21 03:17:13;;;;;;;9.33;0.57;;;0.80;99.90;;;;;;5033082;28;20533;-81
2022/01/21 03:19:39;;;;;;;7.13;0.50;;;0.90;99.90;;;;;;5033674;28;20073;-81
2022/01/21 03:22:05;;;;;;;9.17;0.60;;;1.00;99.90;;;;;;5016793;28;20049;-82
2022/01/21 03:24:31;;;;;;;9.60;0.90;;;1.00;99.90;;;;;;5033062;28;20128;-81
2022/01/21 03:26:57;;;;;;;13.60;0.90;;;1.00;99.90;;;;;;5033080;28;20049;-82
2022/01/21 03:29:22;;;;;;;14.47;2.50;;;1.00;99.90;;;;;;5032670;28;20052;-81
2022/01/21 03:31:48;;;;;;;10.93;1.10;;;1.00;99.90;;;;;;5016173;28;20111;-82
2022/01/21 03:34:14;;;;;;;7.53;1.13;;;0.90;99.90;;;;;;5016127;28;20080;-81
2022/01/21 03:36:40;;;;;;;11.43;1.27;;;0.90;99.90;;;;;;5016709;28;20124;-80
2022/01/21 03:39:06;;;;;;;8.17;0.80;;;0.90;99.90;;;;;;5032991;28;20073;-81
2022/01/21 03:41:32;;;;;;;14.53;2.50;;;0.70;99.90;;;;;;5033089;28;20072;-80
2022/01/21 03:43:58;;;;;;;21.50;1.53;;;0.60;99.90;;;;;;5015560;28;20408;-81
2022/01/21 03:46:24;;;;;;;11.83;0.97;;;0.50;99.90;;;;;;5032716;28;20056;-80
2022/01/21 03:48:50;;;;;;;12.87;1.73;;;0.40;99.90;;;;;;5016378;28;20033;-81
2022/01/21 03:51:18;;;;;;;13.40;1.23;;;0.30;99.90;;;;;;5016342;28;20056;-80
2022/01/21 03:53:46;;;;;;;12.60;1.03;;;0.20;99.90;;;;;;5032454;28;20038;-81
2022/01/21 03:56:15;;;;;;;10.67;2.20;;;0.20;99.90;;;;;;5016183;28;20060;-80
2022/01/21 03:58:42;;;;;;;10.63;1.03;;;0.20;99.90;;;;;;5032205;28;20264;-80
2022/01/21 04:01:08;;;;;;;6.00;0.70;;;0.30;99.90;;;;;;4999833;28;20049;-81
2022/01/21 04:03:34;;;;;;;7.17;1.10;;;0.40;99.90;;;;;;5032332;28;20412;-81
2022/01/21 04:06:00;;;;;;;20.97;2.90;;;0.70;99.90;;;;;;5015634;28;20045;-81
2022/01/21 04:08:26;;;;;;;12.27;1.17;;;0.90;99.90;;;;;;5015930;28;20523;-80
2022/01/21 04:10:51;;;;;;;20.13;3.07;;;1.00;99.90;;;;;;5032387;28;20045;-80
2022/01/21 04:13:20;;;;;;;13.53;1.63;;;1.10;99.90;;;;;;5015627;28;20055;-80
2022/01/21 04:15:55;;;;;;;17.43;1.53;;;1.10;99.90;;;;;;5016025;28;20052;-81
2022/01/21 04:18:22;;;;;;;13.33;1.77;;;1.20;99.90;;;;;;5032285;28;20053;-80
2022/01/21 04:20:48;;;;;;;4.60;0.70;;;1.20;99.90;;;;;;5016554;28;20050;-80
2022/01/21 04:23:16;;;;;;;8.83;1.10;;;1.30;99.90;;;;;;5015478;28;20045;-82
2022/01/21 04:25:42;;;;;;;11.03;0.90;;;1.50;99.90;;;;;;5015718;28;20045;-81
2022/01/21 04:28:08;;;;;;;8.60;0.87;;;1.60;99.90;;;;;;5015553;28;20091;-81
2022/01/21 04:30:37;;;;;;;12.60;1.30;;;1.70;99.90;;;;;;5032520;28;20091;-80
2022/01/21 04:33:04;;;;;;;12.37;1.27;;;1.60;99.90;;;;;;5014554;28;20116;-80
2022/01/21 04:35:30;;;;;;;10.20;0.73;;;1.40;99.90;;;;;;5015578;28;20057;-80
2022/01/21 04:38:00;;;;;;;8.73;0.73;;;1.40;99.90;;;;;;5015008;28;20045;-81
2022/01/21 04:40:32;;;;;;;5.73;0.90;;;1.30;99.90;;;;;;5032154;28;20081;-81
2022/01/21 04:48:29;;;;;;;7.33;0.57;;;1.10;99.90;;;;;;5031284;28;20056;-81
2022/01/21 04:51:10;;;;;;;3.77;0.60;;;1.10;99.90;;;;;;5032125;28;20052;-81
2022/01/21 04:53:36;;;;;;;3.53;0.50;;;1.20;99.90;;;;;;5016995;28;20045;-82
2022/01/21 04:56:02;;;;;;;9.10;0.97;;;1.00;99.90;;;;;;5031953;28;20045;-80
2022/01/21 04:58:27;;;;;;;7.43;0.47;;;0.90;99.90;;;;;;5030548;28;20116;-81
2022/01/21 05:00:53;;;;;;;5.47;0.87;;;0.90;99.90;;;;;;5015111;28;20041;-80
2022/01/21 05:03:19;;;;;;;6.40;1.40;;;1.00;99.90;;;;;;5014659;28;20072;-81
2022/01/21 05:05:45;;;;;;;4.90;0.73;;;1.00;99.90;;;;;;5014794;28;20099;-81
2022/01/21 05:08:21;;;;;;;10.60;1.17;;;1.10;99.90;;;;;;4998191;28;20045;-81
2022/01/21 05:10:47;;;;;;;8.73;0.90;;;1.60;99.90;;;;;;5000488;28;20488;-81
2022/01/21 05:13:16;;;;;;;11.77;1.17;;;1.70;99.90;;;;;;5013831;28;20043;-80
2022/01/21 05:18:07;;;;;;;8.80;1.13;;;1.80;99.90;;;;;;5014924;28;20136;-81
2022/01/21 05:20:33;;;;;;;9.83;1.73;;;1.80;99.90;;;;;;5030739;28;20060;-80
2022/01/21 05:22:58;;;;;;;6.70;1.20;;;1.80;99.90;;;;;;5030677;28;20047;-81
2022/01/21 05:25:24;;;;;;;8.53;0.90;;;1.70;99.90;;;;;;5030526;28;20450;-80
2022/01/21 05:27:53;;;;;;;12.33;1.17;;;1.70;99.90;;;;;;5030921;28;20163;-81
2022/01/21 05:30:19;;;;;;;7.97;0.63;;;1.80;99.90;;;;;;5014028;28;20068;-82
2022/01/21 05:32:45;;;;;;;9.70;1.03;;;1.90;99.90;;;;;;5030828;28;20057;-80
2022/01/21 05:35:12;;;;;;;4.77;1.07;;;1.90;99.90;;;;;;5030826;28;20056;-80
2022/01/21 05:37:38;;;;;;;10.27;0.83;;;2.00;99.90;;;;;;5030993;28;20124;-80
2022/01/21 05:40:07;;;;;;;8.80;1.03;;;2.10;99.90;;;;;;5030746;28;20248;-81
2022/01/21 05:42:35;;;;;;;6.80;1.20;;;2.10;99.90;;;;;;4997963;28;20037;-81
2022/01/21 05:47:31;;;;;;;9.85;1.10;;;2.20;99.90;;;;;;5030635;28;20132;-81
2022/01/21 05:49:57;;;;;;;12.15;2.08;;;2.30;99.90;;;;;;5030050;28;20199;-80
2022/01/21 05:52:33;;;;;;;15.30;1.25;;;2.50;99.90;;;;;;5030664;28;20582;-81
2022/01/21 05:54:59;;;;;;;8.38;1.17;;;2.70;99.90;;;;;;5014342;28;20049;-81
2022/01/21 05:57:24;;;;;;;6.72;1.15;;;2.70;99.90;;;;;;5030372;28;20500;-81
2022/01/21 05:59:50;;;;;;;14.35;1.83;;;2.70;99.90;;;;;;5013474;28;20124;-81
2022/01/21 06:02:16;;;;;;;5.20;0.55;;;2.60;99.90;;;;;;5030378;28;20567;-81
2022/01/21 06:04:44;;;;;;;10.07;0.83;;;2.50;99.90;;;;;;5014722;28;20553;-80
2022/01/21 06:07:11;;;;;;;12.38;0.80;;;2.40;99.90;;;;;;5031024;28;20439;-80
2022/01/21 06:09:37;;;;;;;8.07;1.30;;;2.40;99.90;;;;;;5031052;28;20152;-81
2022/01/21 06:12:05;;;;;;;8.38;1.33;;;2.30;99.90;;;;;;5013771;28;20044;-81
2022/01/21 06:14:30;;;;;;;16.90;1.40;;;2.30;99.90;;;;;;5013526;28;20045;-82
2022/01/21 06:16:56;;;;;;;9.55;1.80;;;2.20;99.90;;;;;;5014094;28;20128;-81
2022/01/21 06:19:22;;;;;;;14.40;1.27;;;2.20;99.90;;;;;;5014367;28;20037;-81
2022/01/21 06:21:48;;;;;;;5.83;1.37;;;2.10;99.90;;;;;;5030760;28;20045;-81
2022/01/21 06:24:13;;;;;;;11.03;1.43;;;2.10;99.90;;;;;;5031145;28;20049;-81
2022/01/21 06:26:39;;;;;;;10.67;1.20;;;2.00;99.90;;;;;;5030425;28;20050;-80
2022/01/21 06:29:05;;;;;;;5.30;0.97;;;2.00;99.90;;;;;;5030173;28;20042;-81
2022/01/21 06:31:31;;;;;;;8.27;1.03;;;2.00;99.90;;;;;;5012912;28;20110;-80
2022/01/21 06:33:58;;;;;;;7.93;1.00;;;1.90;99.90;;;;;;5014145;28;21774;-81
2022/01/21 06:36:24;;;;;;;14.03;2.03;;;1.90;99.90;;;;;;5014861;28;20051;-80
2022/01/21 06:38:50;;;;;;;13.38;1.42;;;1.80;99.90;;;;;;5017200;28;20050;-80
2022/01/21 06:41:15;;;;;;;11.25;1.05;;;1.70;99.90;;;;;;5034187;28;20171;-81
2022/01/21 06:43:42;;;;;;;20.23;2.67;;;1.60;99.90;;;;;;5017482;28;20111;-80
2022/01/21 06:46:12;;;;;;;13.67;2.17;;;1.60;99.90;;;;;;5017570;28;20037;-80
2022/01/21 06:48:38;;;;;;;11.80;1.50;;;1.50;99.90;;;;;;5033249;28;20081;-82
2022/01/21 06:51:04;;;;;;;22.63;2.40;;;1.40;99.90;;;;;;5017221;28;20522;-81
2022/01/21 06:53:29;;;;;;;17.83;1.70;;;1.30;99.90;;;;;;5017571;28;20033;-81
2022/01/21 06:55:55;;;;;;;10.93;1.63;;;1.20;99.90;;;;;;5033283;28;20100;-82
2022/01/21 06:58:21;;;;;;;7.80;0.97;;;1.10;99.90;;;;;;5017416;28;20111;-81
2022/01/21 07:00:46;;;;;;;22.37;2.27;;;1.00;99.90;;;;;;5032650;28;20069;-80
2022/01/21 07:03:12;;;;;;;22.50;3.23;;;1.00;99.90;;;;;;5016658;28;20496;-80
2022/01/21 07:05:38;;;;;;;18.20;2.40;;;1.40;99.90;;;;;;5016893;28;20103;-79
2022/01/21 07:08:04;;;;;;;22.47;2.47;;;1.60;99.90;;;;;;5034020;28;20124;-81
2022/01/21 07:10:30;;;;;;;17.65;1.60;;;1.70;99.90;;;;;;5033408;28;20038;-81
2022/01/21 07:12:57;;;;;;;10.17;1.30;;;1.70;99.90;;;;;;5016934;28;20104;-81
2022/01/21 07:15:23;;;;;;;14.03;1.37;;;1.70;99.90;;;;;;5032309;28;20057;-80
2022/01/21 07:17:52;;;;;;;12.10;1.20;;;2.00;99.90;;;;;;5033032;28;20041;-80
2022/01/21 07:20:19;;;;;;;10.37;1.10;;;2.40;99.90;;;;;;5016535;28;20079;-82
2022/01/21 07:22:45;;;;;;;12.93;2.15;;;2.70;99.90;;;;;;5033566;28;20712;-80
2022/01/21 07:25:12;;;;;;;11.55;2.10;;;2.90;99.90;;;;;;5033085;28;20140;-80
2022/01/21 07:27:38;;;;;;;13.32;1.92;;;2.80;99.90;;;;;;5033153;28;20049;-80
2022/01/21 07:30:05;;;;;;;9.10;1.80;;;2.70;99.90;;;;;;5015609;28;20496;-80
2022/01/21 07:32:31;;;;;;;10.27;1.20;;;2.50;99.90;;;;;;5000303;28;20118;-81
2022/01/21 07:34:57;;;;;;;14.70;1.95;;;2.50;99.90;;;;;;5032968;28;20045;-80
2022/01/21 07:37:22;;;;;;;20.13;3.35;;;2.50;99.90;;;;;;5032812;28;20041;-80
2022/01/21 07:39:48;;;;;;;19.15;2.22;;;2.40;99.90;;;;;;5016260;28;20052;-80
2022/01/21 07:42:14;;;;;;;13.48;1.92;;;2.40;99.90;;;;;;5033264;28;20087;-81
2022/01/21 07:44:40;;;;;;;16.70;4.15;;;2.30;99.90;;;;;;5016049;28;20100;-82
2022/01/21 07:47:06;;;;;;;16.05;2.85;;;2.40;99.90;;;;;;5032544;28;20609;-81
2022/01/21 07:49:32;;;;;;;16.90;2.45;;;2.30;99.90;;;;;;4999291;28;20493;-81
2022/01/21 07:51:58;;;;;;;7.07;1.35;;;2.20;99.90;;;;;;5015427;28;20125;-82
2022/01/21 07:54:24;;;;;;;28.97;4.13;;;2.10;99.90;;;;;;5032296;28;20120;-80
2022/01/21 07:56:49;;;;;;;18.43;2.07;;;2.00;99.90;;;;;;5032457;28;20465;-80
2022/01/21 07:59:16;;;;;;;18.00;2.80;;;1.90;99.90;;;;;;5015852;28;20052;-82
2022/01/21 08:01:43;;;;;;;19.27;2.80;;;1.80;99.90;;;;;;4998378;28;20069;-80
2022/01/21 08:04:11;;;;;;;17.00;2.30;;;1.50;99.90;;;;;;5032430;28;20056;-82
2022/01/21 08:06:36;;;;;;;14.93;1.40;;;1.40;99.90;;;;;;5031570;28;20041;-81
2022/01/21 08:09:04;;;;;;;14.93;2.40;;;1.10;99.90;;;;;;5032161;28;20037;-81
2022/01/21 08:11:30;;;;;;;25.83;2.60;;;1.00;99.90;;;;;;5024614;28;20124;-82
2022/01/21 08:13:56;;;;;;;15.53;1.70;;;0.80;99.90;;;;;;5014538;28;20129;-81
2022/01/21 08:16:22;;;;;;;16.83;2.10;;;0.80;99.90;;;;;;5013971;28;20117;-80
2022/01/21 08:18:49;;;;;;;14.23;1.40;;;0.90;99.90;;;;;;5015610;28;20045;-81
2022/01/21 08:21:18;;;;;;;11.63;1.80;;;0.80;99.90;;;;;;5014489;28;20077;-81
2022/01/21 08:23:55;;;;;;;17.37;2.10;;;0.80;99.90;;;;;;5032016;28;20037;-80
2022/01/21 08:26:24;;;;;;;19.73;2.40;;;0.80;99.90;;;;;;5031723;28;20120;-80
2022/01/21 08:28:52;;;;;;;19.37;1.83;;;0.80;99.90;;;;;;5031667;28;20092;-82
2022/01/21 08:31:18;;;;;;;23.73;2.47;;;0.80;99.90;;;;;;5015260;28;20076;-80
2022/01/21 08:33:44;;;;;;;17.33;1.93;;;0.80;99.90;;;;;;5031743;28;20081;-81
2022/01/21 08:36:10;;;;;;;19.50;2.60;;;0.80;99.90;;;;;;5014891;28;20049;-82
2022/01/21 08:38:36;;;;;;;26.63;2.17;;;0.80;99.90;;;;;;5031271;28;20219;-81
2022/01/21 08:41:02;;;;;;;19.67;2.73;;;0.90;99.90;;;;;;5014744;28;20045;-80
2022/01/21 08:43:29;;;;;;;18.43;2.47;;;1.00;99.90;;;;;;5013812;28;20041;-81
2022/01/21 08:45:55;;;;;;;17.37;4.23;;;1.10;99.90;;;;;;5014376;28;20056;-81
2022/01/21 08:48:20;;;;;;;13.33;2.00;;;1.30;99.90;;;;;;5031454;28;20045;-81
2022/01/21 08:50:46;;;;;;;21.97;2.00;;;1.50;99.90;;;;;;5015060;28;20053;-80
2022/01/21 08:55:57;;;;;;;22.87;2.50;;;1.80;99.90;;;;;;5031237;28;20049;-82
2022/01/21 08:58:24;;;;;;;19.50;2.00;;;2.00;99.90;;;;;;5030349;28;20034;-82
2022/01/21 09:00:50;;;;;;;20.42;3.08;;;2.10;99.90;;;;;;5029484;28;20176;-80
2022/01/21 09:03:16;;;;;;;14.43;2.88;;;2.10;99.90;;;;;;5030418;28;20084;-81
2022/01/21 09:05:48;;;;;;;26.77;4.88;;;2.30;99.90;;;;;;5014604;28;20138;-81
2022/01/21 09:08:25;;;;;;;17.42;2.42;;;2.40;99.90;;;;;;5015494;28;20073;-81
2022/01/21 09:10:53;;;;;;;17.98;2.33;;;2.50;99.90;;;;;;5013700;28;20053;-81
2022/01/21 09:13:20;;;;;;;20.45;2.67;;;2.60;99.90;;;;;;5031746;28;20045;-80
2022/01/21 09:15:46;;;;;;;16.88;2.90;;;2.80;99.90;;;;;;5030820;28;20071;-80
2022/01/21 09:18:17;;;;;;;18.55;2.28;;;2.90;99.90;;;;;;5014720;28;20041;-80
2022/01/21 09:20:43;;;;;;;31.67;3.30;;;3.10;99.90;;;;;;5014812;28;20045;-82
2022/01/21 09:23:09;;;;;;;22.80;2.28;;;3.30;99.90;;;;;;5014601;28;20045;-80
2022/01/21 09:25:34;;;;;;;19.80;2.83;;;3.50;99.90;;;;;;5013937;28;20111;-80
2022/01/21 09:28:01;;;;;;;23.15;3.78;;;3.60;99.90;;;;;;5014685;28;20051;-82
2022/01/21 09:30:27;;;;;;;29.67;4.60;;;3.70;99.90;;;;;;5030706;28;20060;-81
2022/01/21 09:32:54;;;;;;;18.25;2.83;;;3.80;99.90;;;;;;5030513;28;20416;-81
2022/01/21 09:35:19;;;;;;;17.67;1.60;;;4.00;99.90;;;;;;5031154;28;20510;-82
2022/01/21 09:37:45;;;;;;;13.75;1.50;;;4.00;99.90;;;;;;5030682;28;20045;-82
2022/01/21 09:40:12;;;;;;;15.73;1.73;;;4.10;99.90;;;;;;5014050;28;20045;-82
2022/01/21 09:42:38;;;;;;;19.17;1.80;;;4.20;99.90;;;;;;5014268;28;20056;-82
2022/01/21 09:45:09;;;;;;;17.52;1.65;;;4.30;99.90;;;;;;5030739;28;20037;-82
2022/01/21 09:47:45;;;;;;;12.60;1.80;;;4.30;99.90;;;;;;5029802;28;20120;-82
2022/01/21 09:50:16;;;;;;;16.17;2.15;;;4.40;99.90;;;;;;5010853;28;20045;-82
2022/01/21 09:52:47;;;;;;;21.17;2.38;;;4.50;99.90;;;;;;5030691;28;20053;-81
2022/01/21 09:55:13;;;;;;;12.60;2.00;;;4.50;99.90;;;;;;5014012;28;20049;-80
2022/01/21 09:57:44;;;;;;;23.80;4.00;;;4.60;99.90;;;;;;5030494;28;20109;-82
2022/01/21 10:00:10;;;;;;;15.25;2.33;;;4.60;99.90;;;;;;5014580;28;20065;-82
2022/01/21 10:02:36;;;;;;;23.75;3.13;;;4.70;99.90;;;;;;5013972;28;20192;-82
2022/01/21 10:05:04;;;;;;;20.60;2.78;;;4.80;99.90;;;;;;5030256;28;20457;-82
2022/01/21 10:07:31;;;;;;;15.63;2.83;;;4.70;99.90;;;;;;5014203;28;20038;-82
2022/01/21 10:09:59;;;;;;;12.68;2.47;;;4.70;99.90;;;;;;4997912;28;20408;-81
2022/01/21 10:12:25;;;;;;;14.88;1.63;;;4.80;99.90;;;;;;5024856;28;20095;-81
2022/01/21 10:14:51;;;;;;;15.20;2.53;;;4.90;99.90;;;;;;5018245;28;20049;-81
2022/01/21 10:17:17;;;;;;;16.38;2.30;;;5.10;99.90;;;;;;5001394;28;20046;-81
2022/01/21 10:19:45;;;;;;;16.40;2.38;;;5.10;99.90;;;;;;5017803;28;20045;-82
2022/01/21 10:22:18;;;;;;;14.45;1.92;;;5.20;99.90;;;;;;5017802;28;20056;-80
2022/01/21 10:25:00;;;;;;;17.35;2.80;;;5.30;99.90;;;;;;5017773;28;20479;-81
2022/01/21 10:27:38;;;;;;;19.33;1.50;;;5.30;99.90;;;;;;5027652;28;20061;-81
2022/01/21 10:30:24;;;;;;;19.42;2.42;;;5.40;99.90;;;;;;5018342;28;20515;-81
2022/01/21 10:32:50;;;;;;;20.67;2.28;;;5.60;99.90;;;;;;5031207;28;20692;-81
2022/01/21 10:35:26;;;;;;;21.00;2.90;;;5.80;99.90;;;;;;5001461;28;20081;-80
2022/01/21 10:37:56;;;;;;;15.25;1.77;;;5.80;99.90;;;;;;5017908;28;20056;-80
2022/01/21 10:40:22;;;;;;;17.20;3.83;;;5.90;99.90;;;;;;5034618;28;20522;-81
2022/01/21 10:42:49;;;;;;;15.10;3.10;;;6.00;99.90;;;;;;5017736;28;20073;-80
2022/01/21 10:45:15;;;;;;;9.90;1.88;;;6.10;99.90;;;;;;5032389;28;20063;-80
2022/01/21 10:47:50;;;;;;;13.52;2.08;;;6.10;99.90;;;;;;5032862;28;20416;-81
2022/01/21 10:50:19;;;;;;;15.57;3.35;;;6.10;99.90;;;;;;5017268;28;20380;-80
2022/01/21 10:52:51;;;;;;;18.10;2.53;;;6.00;99.90;;;;;;5016423;28;20045;-80
2022/01/21 10:55:29;;;;;;;15.48;1.98;;;5.90;99.90;;;;;;5018057;28;20480;-81
2022/01/21 10:58:12;;;;;;;11.90;1.67;;;5.90;99.90;;;;;;5032617;28;20045;-82
2022/01/21 11:01:03;;;;;;;14.25;1.90;;;6.00;99.90;;;;;;5031574;28;20545;-81
2022/01/21 11:03:30;;;;;;;13.95;1.70;;;6.10;99.90;;;;;;5016228;28;20053;-81
2022/01/21 11:06:14;;;;;;;13.07;2.13;;;6.20;99.90;;;;;;5015749;28;20178;-80
2022/01/21 11:08:40;;;;;;;8.80;1.20;;;6.30;99.90;;;;;;5026770;28;20133;-81
2022/01/21 11:11:06;;;;;;;12.05;1.27;;;6.40;99.90;;;;;;4998857;28;20124;-80
2022/01/21 11:13:36;;;;;;;11.45;1.95;;;6.50;99.90;;;;;;5016133;28;20120;-80
2022/01/21 11:16:09;;;;;;;8.02;1.58;;;6.60;99.90;;;;;;4999339;28;20120;-82
2022/01/21 11:18:56;;;;;;;13.38;1.67;;;6.60;99.90;;;;;;5032802;28;20049;-80
2022/01/21 11:21:23;;;;;;;11.23;1.17;;;6.60;99.90;;;;;;5015102;28;20120;-81
2022/01/21 11:23:48;;;;;;;14.52;2.63;;;6.70;99.90;;;;;;5014843;28;20045;-82
2022/01/21 11:26:16;;;;;;;25.08;1.77;;;6.70;99.90;;;;;;5032250;28;20044;-82
2022/01/21 11:28:50;;;;;;;10.75;1.15;;;7.00;99.90;;;;;;5000184;28;20458;-80
2022/01/21 11:31:21;;;;;;;14.55;1.42;;;6.80;99.90;;;;;;4981391;28;20133;-80
2022/01/21 11:33:47;;;;;;;11.65;1.85;;;6.80;99.90;;;;;;4997161;28;20057;-82
2022/01/21 11:36:13;;;;;;;17.65;1.80;;;6.80;99.90;;;;;;4997185;28;20081;-82
2022/01/21 11:38:43;;;;;;;14.00;1.45;;;6.90;99.90;;;;;;5013620;28;20129;-82
2022/01/21 11:41:09;;;;;;;10.93;2.25;;;7.00;99.90;;;;;;4997234;28;20048;-80
2022/01/21 11:43:38;;;;;;;14.77;2.70;;;7.00;99.90;;;;;;5013445;28;20073;-81
2022/01/21 11:48:52;;;;;;;10.18;2.40;;;7.00;99.90;;;;;;5013639;28;20133;-82
2022/01/21 11:51:24;;;;;;;16.60;2.42;;;7.00;99.90;;;;;;5013538;28;20054;-82
2022/01/21 11:53:56;;;;;;;10.30;2.42;;;6.90;99.90;;;;;;4997050;28;20046;-81
2022/01/21 11:56:43;;;;;;;12.85;1.30;;;6.90;99.90;;;;;;4996971;28;20056;-80
2022/01/21 12:00:06;;;;;;;8.90;2.42;;;6.80;99.90;;;;;;4996801;28;20108;-80
2022/01/21 12:02:36;;;;;;;12.32;1.95;;;6.80;99.90;;;;;;4996762;28;20096;-80
2022/01/21 12:05:10;;;;;;;6.65;2.03;;;6.90;99.90;;;;;;4996860;28;20510;-80
2022/01/21 12:07:44;;;;;;;11.77;1.75;;;6.90;99.90;;;;;;5029384;28;20050;-82
2022/01/21 12:10:29;;;;;;;13.20;1.92;;;6.90;99.90;;;;;;5013312;28;20595;-81
2022/01/21 12:12:58;;;;;;;8.93;1.27;;;7.00;99.90;;;;;;5012942;28;20056;-80
2022/01/21 12:20:58;;;;;;;9.40;1.92;;;7.00;99.90;;;;;;5012606;28;19921;-82
2022/01/21 12:23:26;;;;;;;14.50;1.38;;;7.00;99.90;;;;;;5011044;28;20045;-81
2022/01/21 12:26:11;;;;;;;11.23;1.80;;;6.90;99.90;;;;;;5031856;28;20073;-81
2022/01/21 12:28:38;;;;;;;18.83;2.47;;;6.80;99.90;;;;;;5032130;28;20046;-81
2022/01/21 12:31:05;;;;;;;9.50;1.58;;;6.80;99.90;;;;;;5032061;28;20121;-82
2022/01/21 12:36:22;;;;;;;14.80;2.03;;;6.80;99.90;;;;;;5023718;28;20132;-80
2022/01/21 12:41:17;;;;;;;15.73;3.80;;;6.70;99.90;;;;;;5030603;28;20046;-82
2022/01/21 12:43:48;;;;;;;16.67;3.53;;;6.60;99.90;;;;;;5030154;28;20120;-80
2022/01/21 12:46:23;;;;;;;13.77;1.83;;;6.70;99.90;;;;;;5029974;28;20078;-80
2022/01/21 12:48:50;;;;;;;15.30;2.65;;;6.50;99.90;;;;;;5030039;28;20103;-80
2022/01/21 12:51:32;;;;;;;12.13;2.05;;;6.60;99.90;;;;;;5029843;28;20566;-80
2022/01/21 12:56:53;;;;;;;13.70;2.05;;;6.50;99.90;;;;;;5029107;28;20049;-81
2022/01/21 12:59:27;;;;;;;17.98;2.03;;;6.60;99.90;;;;;;5029661;28;20046;-80
2022/01/21 13:01:56;;;;;;;9.85;1.60;;;6.50;99.90;;;;;;5030158;28;20047;-80
2022/01/21 13:04:28;;;;;;;13.10;2.22;;;6.60;99.90;;;;;;4997142;28;20100;-82
2022/01/21 13:07:06;;;;;;;19.85;2.33;;;6.70;99.90;;;;;;5013578;28;20053;-80
2022/01/21 13:10:00;;;;;;;13.25;2.70;;;6.50;99.90;;;;;;5013787;28;20396;-80
2022/01/21 13:15:48;;;;;;;17.45;2.17;;;6.60;99.90;;;;;;5021315;28;20050;-80
2022/01/21 13:18:18;;;;;;;17.25;3.38;;;6.50;99.90;;;;;;5031039;28;20109;-81
2022/01/21 13:20:48;;;;;;;26.48;2.75;;;6.50;99.90;;;;;;5030834;28;20041;-81
2022/01/21 13:23:31;;;;;;;14.93;2.60;;;6.50;99.90;;;;;;5014444;28;20041;-82
2022/01/21 13:26:15;;;;;;;11.98;2.10;;;6.50;99.90;;;;;;5031068;28;20076;-80
2022/01/21 13:29:02;;;;;;;23.67;4.13;;;6.50;99.90;;;;;;5014643;28;20523;-81
2022/01/21 13:31:30;;;;;;;17.58;2.30;;;6.50;99.90;;;;;;5011648;28;20046;-81
2022/01/21 13:34:15;;;;;;;19.83;2.40;;;6.50;99.90;;;;;;4999871;28;20059;-80
2022/01/21 13:36:49;;;;;;;10.65;1.40;;;6.50;99.90;;;;;;5031120;28;20046;-80
2022/01/21 13:39:29;;;;;;;12.40;1.42;;;6.40;99.90;;;;;;5030353;28;20041;-81
2022/01/21 13:41:54;;;;;;;10.65;1.80;;;6.50;99.90;;;;;;5031256;28;20100;-80
2022/01/21 13:44:31;;;;;;;16.65;1.90;;;6.50;99.90;;;;;;5030538;28;20037;-81
2022/01/21 13:46:59;;;;;;;21.98;2.08;;;6.50;99.90;;;;;;5032128;28;20045;-81
2022/01/21 13:49:26;;;;;;;17.98;3.85;;;6.60;99.90;;;;;;5017618;28;20395;-80
2022/01/21 13:52:01;;;;;;;14.88;1.67;;;6.50;99.90;;;;;;5018852;28;20037;-80
2022/01/21 13:54:34;;;;;;;12.15;2.30;;;6.60;99.90;;;;;;5017904;28;20033;-80
2022/01/21 13:57:01;;;;;;;14.63;2.75;;;6.60;99.90;;;;;;5018357;28;20076;-81
2022/01/21 13:59:29;;;;;;;12.85;2.20;;;6.60;99.90;;;;;;5018506;28;20462;-81
2022/01/21 14:02:08;;;;;;;13.30;1.70;;;6.60;99.90;;;;;;5035319;28;20056;-80
2022/01/21 14:04:34;;;;;;;15.48;1.90;;;6.70;99.90;;;;;;5035021;28;20091;-80
2022/01/21 14:07:00;;;;;;;14.38;1.77;;;6.80;99.90;;;;;;5035095;28;20053;-80
2022/01/21 14:09:26;;;;;;;15.10;2.13;;;6.80;99.90;;;;;;5034674;28;20562;-81
2022/01/21 14:11:51;;;;;;;13.32;1.90;;;6.70;99.90;;;;;;5018501;28;20037;-81